This is the latest recevied weather packets stored in our database for station/object IU2PLZ-10. If no packets are shown the sender has not sent any weather packets the latest 10 day(s).
| Time | Temp. | Humidity | Pressure | Rain* | Wind** | Luminosity | Snow |
|---|---|---|---|---|---|---|---|
| 1777642298 | 22.78° C | 40% | 967.2 hPa | - | - | - | - |
| 1777636897 | 23.33° C | 42% | 967 hPa | - | - | - | - |
| 1777625195 | 25° C | 47% | 967.5 hPa | - | - | - | - |
| 1777624295 | 25° C | 50% | 967.6 hPa | - | - | - | - |
| 1777621594 | 22.22° C | 57% | 967.4 hPa | - | - | - | - |
| 1777620694 | 22.78° C | 57% | 968.1 hPa | - | - | - | - |
| 1777619794 | 21.67° C | 60% | 967.9 hPa | - | - | - | - |
| 1777618894 | 21.67° C | 57% | 967.9 hPa | - | - | - | - |
| 1777617994 | 21.67° C | 58% | 967.1 hPa | - | - | - | - |
| 1777617093 | 21.67° C | 56% | 967.7 hPa | - | - | - | - |
| 1777616193 | 22.78° C | 55% | 967.7 hPa | - | - | - | - |
| 1777615293 | 23.33° C | 54% | 967.6 hPa | - | - | - | - |
| 1777602691 | 18.89° C | 58% | 965.8 hPa | - | - | - | - |
| 1777601791 | 19.44° C | 57% | 966.5 hPa | - | - | - | - |
| 1777600890 | 19.44° C | 57% | 966.8 hPa | - | - | - | - |
| 1777597290 | 19.44° C | 61% | 966.9 hPa | - | - | - | - |
| 1777596390 | 18.89° C | 62% | 966.8 hPa | - | - | - | - |
| 1777595489 | 18.33° C | 63% | 966.1 hPa | - | - | - | - |
| 1777594589 | 18.89° C | 62% | 966.9 hPa | - | - | - | - |
| 1777593689 | 18.33° C | 61% | 966.2 hPa | - | - | - | - |
| 1777592789 | 18.89° C | 62% | 966.8 hPa | - | - | - | - |
| 1777591889 | 18.89° C | 61% | 966.8 hPa | - | - | - | - |
| 1777590989 | 18.89° C | 62% | 966.8 hPa | - | - | - | - |
| 1777590089 | 18.89° C | 62% | 966.8 hPa | - | - | - | - |
| 1777589188 | 19.44° C | 61% | 966.7 hPa | - | - | - | - |
* Rain since midnight (hover to see other rain measurements)
** Current wind speed in m/s (hover to see current wind gust speed)